Time;durP1;ratioP1;P1;durP2;ratioP2;P2;SDS_P1;SDS_P2;PMS_P1;PMS_P2;Temp;Humidity;BMP_temperature;BMP_pressure;BME280_temperature;BME280_humidity;BME280_pressure;Samples;Min_cycle;Max_cycle;Signal;HPM_P1;HPM_P2
2021/03/15 00:00:31;;;;;;;;;;;;;;;15.93;39.25;99603.00;4399859;32;20016;-52
2021/03/15 00:02:57;;;;;;;;;;;;;;;15.98;39.13;99606.56;4400152;32;21216;-52
2021/03/15 00:05:23;;;;;;;;;;;;;;;16.02;38.96;99591.78;4399085;32;20411;-54
2021/03/15 00:07:49;;;;;;;;;;;;;;;16.00;39.09;99581.25;4399470;32;19958;-52
2021/03/15 00:10:15;;;;;;;;;;;;;;;15.92;39.17;99580.22;4399211;32;20025;-54
2021/03/15 00:12:41;;;;;;;;;;;;;;;15.92;39.38;99587.19;4399511;32;19973;-52
2021/03/15 00:15:07;;;;;;;;;;;;;;;15.88;39.28;99595.00;4400202;32;19954;-51
2021/03/15 00:17:33;;;;;;;;;;;;;;;15.86;39.51;99593.19;4403440;32;19954;-50
2021/03/15 00:19:59;;;;;;;;;;;;;;;15.84;39.45;99587.94;4399273;32;19958;-54
2021/03/15 00:22:25;;;;;;;;;;;;;;;15.85;39.40;99602.81;4399575;32;20295;-53
2021/03/15 00:24:51;;;;;;;;;;;;;;;15.87;39.28;99595.84;4398544;32;19978;-52
2021/03/15 00:27:17;;;;;;;;;;;;;;;15.79;39.60;99599.19;4398639;32;19982;-52
2021/03/15 00:29:43;;;;;;;;;;;;;;;15.86;39.33;99607.22;4399861;32;19962;-53
2021/03/15 00:32:08;;;;;;;;;;;;;;;15.90;39.33;99599.41;4399273;32;19998;-51
2021/03/15 00:34:34;;;;;;;;;;;;;;;15.86;39.46;99607.22;4399195;32;20016;-51
2021/03/15 00:37:00;;;;;;;;;;;;;;;15.86;39.39;99601.97;4398742;32;20681;-52
2021/03/15 00:39:26;;;;;;;;;;;;;;;15.87;39.23;99597.63;4399484;32;19963;-50
2021/03/15 00:41:52;;;;;;;;;;;;;;;15.84;39.32;99593.19;4398975;32;20010;-53
2021/03/15 00:44:18;;;;;;;;;;;;;;;15.86;39.51;99601.06;4399016;32;20015;-52
2021/03/15 00:46:44;;;;;;;;;;;;;;;15.85;39.43;99592.31;4386276;32;20020;-52
2021/03/15 00:49:10;;;;;;;;;;;;;;;15.83;39.45;99591.41;4399133;32;19977;-53
2021/03/15 00:51:35;;;;;;;;;;;;;;;15.85;39.24;99586.16;4399404;32;19950;-52
2021/03/15 00:54:01;;;;;;;;;;;;;;;15.83;39.42;99574.75;4399569;32;20468;-49
2021/03/15 00:56:27;;;;;;;;;;;;;;;15.78;39.47;99573.81;4397994;32;19954;-55
2021/03/15 00:58:53;;;;;;;;;;;;;;;15.78;39.45;99571.19;4398736;32;19966;-51
2021/03/15 01:01:19;;;;;;;;;;;;;;;15.78;39.34;99565.94;4399242;32;19967;-51
2021/03/15 01:03:45;;;;;;;;;;;;;;;15.76;39.51;99562.41;4399484;32;19969;-52
2021/03/15 01:06:11;;;;;;;;;;;;;;;15.83;39.48;99561.63;4399283;32;20385;-50
2021/03/15 01:08:36;;;;;;;;;;;;;;;15.80;39.54;99553.72;4398127;32;20039;-49
2021/03/15 01:11:02;;;;;;;;;;;;;;;15.87;39.17;99547.72;4398514;32;19958;-50
2021/03/15 01:13:28;;;;;;;;;;;;;;;15.92;38.97;99538.22;4398387;32;19994;-51
2021/03/15 01:15:54;;;;;;;;;;;;;;;15.92;39.10;99542.56;4398628;32;19978;-54
2021/03/15 01:18:20;;;;;;;;;;;;;;;15.85;39.39;99528.41;4398599;32;20027;-51
2021/03/15 01:20:46;;;;;;;;;;;;;;;15.87;39.16;99529.34;4399542;32;20758;-52
2021/03/15 01:23:12;;;;;;;;;;;;;;;15.77;39.40;99524.78;4404912;32;19958;-49
2021/03/15 01:25:38;;;;;;;;;;;;;;;15.81;39.29;99517.00;4413584;32;20374;-53
2021/03/15 01:28:03;;;;;;;;;;;;;;;15.74;39.39;99518.63;4412256;32;19995;-52
2021/03/15 01:30:29;;;;;;;;;;;;;;;15.76;39.57;99512.53;4413383;32;19998;-53
2021/03/15 01:32:55;;;;;;;;;;;;;;;15.77;39.36;99511.66;4413683;32;19958;-52
2021/03/15 01:35:21;;;;;;;;;;;;;;;15.74;39.49;99507.22;4414279;32;19987;-52
2021/03/15 01:37:47;;;;;;;;;;;;;;;15.73;39.44;99500.22;4409891;32;20417;-50
2021/03/15 01:40:13;;;;;;;;;;;;;;;15.68;39.52;99502.75;4414266;32;19992;-54
2021/03/15 01:42:39;;;;;;;;;;;;;;;15.69;39.56;99499.28;4414016;32;19954;-51
2021/03/15 01:45:05;;;;;;;;;;;;;;;15.73;39.41;99501.09;4413604;32;20003;-53
2021/03/15 01:47:31;;;;;;;;;;;;;;;15.71;39.42;99489.69;4416577;32;19977;-53
2021/03/15 01:49:57;;;;;;;;;;;;;;;15.63;39.57;99483.44;4417536;32;19992;-49
2021/03/15 01:52:23;;;;;;;;;;;;;;;15.74;39.41;99471.38;4417004;32;20045;-52
2021/03/15 01:54:49;;;;;;;;;;;;;;;15.70;39.61;99473.91;4416861;32;20363;-52
2021/03/15 01:57:14;;;;;;;;;;;;;;;15.64;39.56;99471.19;4415527;32;19994;-53
2021/03/15 01:59:40;;;;;;;;;;;;;;;15.65;39.55;99463.34;4413590;32;19962;-55
2021/03/15 02:02:06;;;;;;;;;;;;;;;15.58;39.73;99454.47;4416920;32;19950;-54
2021/03/15 02:04:32;;;;;;;;;;;;;;;15.53;39.88;99456.12;4417151;32;19964;-51
2021/03/15 02:06:58;;;;;;;;;;;;;;;15.49;39.95;99449.06;4416429;32;19976;-50
2021/03/15 02:09:24;;;;;;;;;;;;;;;15.51;39.96;99441.22;4415584;32;19988;-48
2021/03/15 02:11:50;;;;;;;;;;;;;;;15.61;39.69;99448.38;4415127;32;20471;-54
2021/03/15 02:14:16;;;;;;;;;;;;;;;15.55;39.83;99440.41;4415996;32;19986;-50
2021/03/15 02:16:42;;;;;;;;;;;;;;;15.52;39.88;99449.09;4417033;32;19968;-54
2021/03/15 02:19:08;;;;;;;;;;;;;;;15.63;39.71;99433.56;4415031;32;19995;-53
2021/03/15 02:21:34;;;;;;;;;;;;;;;15.52;39.88;99427.25;4403768;32;19992;-52
2021/03/15 02:24:00;;;;;;;;;;;;;;;15.51;39.93;99433.34;4415229;32;19957;-52
2021/03/15 02:26:27;;;;;;;;;;;;;;;15.48;39.98;99426.31;4416520;32;19981;-52
2021/03/15 02:28:52;;;;;;;;;;;;;;;15.56;39.82;99429.06;4416257;32;20005;-52
2021/03/15 02:31:18;;;;;;;;;;;;;;;15.54;39.86;99425.53;4415536;32;19973;-50
2021/03/15 02:33:44;;;;;;;;;;;;;;;15.52;39.89;99422.00;4414634;32;19993;-52
2021/03/15 02:36:10;;;;;;;;;;;;;;;15.64;39.72;99406.47;4415564;32;20011;-51
2021/03/15 02:38:36;;;;;;;;;;;;;;;15.65;39.53;99404.69;4415088;32;19968;-52
2021/03/15 02:41:02;;;;;;;;;;;;;;;15.65;39.55;99402.97;4414921;32;19958;-51
2021/03/15 02:43:29;;;;;;;;;;;;;;;15.67;39.58;99397.72;4415424;32;19983;-52
2021/03/15 02:45:55;;;;;;;;;;;;;;;15.59;39.66;99392.34;4416528;32;20028;-53
2021/03/15 02:48:21;;;;;;;;;;;;;;;15.69;39.47;99391.66;4415622;32;19957;-51
2021/03/15 02:50:47;;;;;;;;;;;;;;;15.71;39.35;99387.31;4415590;32;19958;-52
2021/03/15 02:53:14;;;;;;;;;;;;;;;15.64;39.72;99384.56;4414936;32;20299;-53
2021/03/15 02:55:40;;;;;;;;;;;;;;;15.63;39.65;99381.06;4414390;32;19984;-52
2021/03/15 02:58:06;;;;;;;;;;;;;;;15.66;39.50;99370.63;4413613;32;20343;-50
2021/03/15 03:00:31;;;;;;;;;;;;;;;15.65;39.55;99360.97;4414685;32;19954;-50
2021/03/15 03:02:57;;;;;;;;;;;;;;;15.58;39.74;99353.84;4415621;32;19954;-53
2021/03/15 03:05:23;;;;;;;;;;;;;;;15.41;40.12;99351.84;4413658;32;20421;-53
2021/03/15 03:07:49;;;;;;;;;;;;;;;15.45;40.07;99337.91;4415006;32;20021;-49
2021/03/15 03:10:15;;;;;;;;;;;;;;;15.37;40.25;99326.44;4415317;32;20298;-52
2021/03/15 03:12:41;;;;;;;;;;;;;;;15.51;39.90;99315.28;4415602;32;19977;-52
2021/03/15 03:15:08;;;;;;;;;;;;;;;15.41;40.21;99317.75;4415443;32;20338;-52
2021/03/15 03:17:34;;;;;;;;;;;;;;;15.48;40.08;99317.81;4415917;32;20013;-52
2021/03/15 03:19:59;;;;;;;;;;;;;;;15.42;40.14;99322.13;4415425;32;20011;-50
2021/03/15 03:22:25;;;;;;;;;;;;;;;15.31;40.36;99324.59;4415238;32;19977;-52
2021/03/15 03:24:51;;;;;;;;;;;;;;;15.30;40.46;99327.19;4412505;32;20307;-54
2021/03/15 03:27:17;;;;;;;;;;;;;;;15.22;40.68;99323.53;4414644;32;20027;-52
2021/03/15 03:29:43;;;;;;;;;;;;;;;15.36;40.49;99316.75;4415797;32;20706;-49
2021/03/15 03:32:09;;;;;;;;;;;;;;;15.28;40.54;99321.03;4415122;32;19954;-48
2021/03/15 03:34:35;;;;;;;;;;;;;;;15.38;40.24;99308.94;4413397;32;19962;-53
2021/03/15 03:37:01;;;;;;;;;;;;;;;15.41;40.22;99309.88;4415244;32;19962;-53
2021/03/15 03:39:26;;;;;;;;;;;;;;;15.46;40.14;99307.31;4414979;32;19997;-51
2021/03/15 03:41:52;;;;;;;;;;;;;;;15.52;40.02;99303.91;4415186;32;20327;-50
2021/03/15 03:44:18;;;;;;;;;;;;;;;15.49;40.10;99303.84;4414272;32;19958;-51
2021/03/15 03:46:45;;;;;;;;;;;;;;;15.43;40.22;99304.62;4414728;32;19997;-52
2021/03/15 03:49:11;;;;;;;;;;;;;;;15.58;39.85;99291.75;4413314;32;19969;-54
2021/03/15 03:51:37;;;;;;;;;;;;;;;15.59;39.72;99283.03;4415384;32;20009;-52
2021/03/15 03:54:03;;;;;;;;;;;;;;;15.63;39.76;99278.72;4415133;32;19957;-49
2021/03/15 03:56:29;;;;;;;;;;;;;;;15.60;39.82;99281.28;4414990;32;19954;-51
2021/03/15 03:58:55;;;;;;;;;;;;;;;15.57;39.93;99278.63;4413380;32;20316;-53
2021/03/15 04:01:21;;;;;;;;;;;;;;;15.58;40.02;99280.38;4413910;32;20059;-54
2021/03/15 04:03:47;;;;;;;;;;;;;;;15.70;39.72;99270.06;4414896;32;19976;-54
2021/03/15 04:06:12;;;;;;;;;;;;;;;15.60;39.96;99273.41;4413997;32;20526;-50
2021/03/15 04:08:38;;;;;;;;;;;;;;;15.71;39.55;99271.81;4414823;32;19954;-54
2021/03/15 04:11:04;;;;;;;;;;;;;;;15.59;39.87;99266.38;4413775;32;20049;-51
2021/03/15 04:13:30;;;;;;;;;;;;;;;15.55;40.06;99262.84;4414172;32;19969;-53
2021/03/15 04:15:56;;;;;;;;;;;;;;;15.56;40.04;99253.22;4413936;32;19954;-52
2021/03/15 04:18:22;;;;;;;;;;;;;;;15.61;39.87;99259.41;4411098;32;19958;-53
2021/03/15 04:20:48;;;;;;;;;;;;;;;15.64;39.80;99258.59;4414440;32;19958;-53
2021/03/15 04:23:13;;;;;;;;;;;;;;;15.48;40.21;99258.38;4413955;32;21271;-52
2021/03/15 04:25:39;;;;;;;;;;;;;;;15.42;40.42;99250.41;4415183;32;19977;-54
2021/03/15 04:28:05;;;;;;;;;;;;;;;15.57;40.06;99247.13;4410428;32;19965;-50
2021/03/15 04:30:31;;;;;;;;;;;;;;;15.72;39.73;99249.94;4415282;32;19962;-52
2021/03/15 04:32:57;;;;;;;;;;;;;;;15.66;39.80;99242.00;4414993;32;19962;-53
2021/03/15 04:35:23;;;;;;;;;;;;;;;15.57;40.03;99248.03;4414736;32;20045;-52
2021/03/15 04:37:49;;;;;;;;;;;;;;;15.57;40.00;99236.63;4414913;32;19977;-53
2021/03/15 04:40:15;;;;;;;;;;;;;;;15.52;40.25;99233.06;4414121;32;20038;-52
2021/03/15 04:42:40;;;;;;;;;;;;;;;15.63;39.95;99236.72;4413221;32;19954;-51
2021/03/15 04:45:07;;;;;;;;;;;;;;;15.64;39.88;99222.75;4413784;32;20009;-54
2021/03/15 04:47:32;;;;;;;;;;;;;;;15.63;39.81;99220.97;4412988;32;19989;-50
2021/03/15 04:49:58;;;;;;;;;;;;;;;15.66;39.93;99223.63;4414542;32;19958;-51
2021/03/15 04:52:24;;;;;;;;;;;;;;;15.66;39.93;99214.88;4413879;32;19966;-53
2021/03/15 04:54:50;;;;;;;;;;;;;;;15.70;39.81;99209.69;4414351;32;19961;-48
2021/03/15 04:57:16;;;;;;;;;;;;;;;15.68;39.89;99214.03;4413599;32;20282;-52
2021/03/15 04:59:42;;;;;;;;;;;;;;;15.68;40.02;99208.78;4414847;32;19958;-54
2021/03/15 05:02:08;;;;;;;;;;;;;;;15.62;39.97;99213.97;4413698;32;19954;-51
2021/03/15 05:04:33;;;;;;;;;;;;;;;15.57;40.12;99210.38;4410810;32;19938;-51
2021/03/15 05:06:59;;;;;;;;;;;;;;;15.65;39.84;99202.59;4411956;32;20001;-51
2021/03/15 05:09:25;;;;;;;;;;;;;;;15.67;39.91;99211.38;4414702;32;19999;-52
2021/03/15 05:11:51;;;;;;;;;;;;;;;15.57;40.15;99208.66;4414460;32;19970;-53
2021/03/15 05:14:17;;;;;;;;;;;;;;;15.67;39.89;99214.00;4414388;32;19958;-50
2021/03/15 05:16:43;;;;;;;;;;;;;;;15.56;40.26;99203.38;4414522;32;19969;-51
2021/03/15 05:19:09;;;;;;;;;;;;;;;15.54;40.13;99208.59;4413771;32;19958;-50
2021/03/15 05:21:35;;;;;;;;;;;;;;;15.63;40.00;99204.34;4415703;32;19958;-49
2021/03/15 05:24:01;;;;;;;;;;;;;;;15.60;40.12;99205.16;4417092;32;20007;-50
2021/03/15 05:26:27;;;;;;;;;;;;;;;15.63;39.92;99201.72;4417045;32;19946;-51
2021/03/15 05:28:53;;;;;;;;;;;;;;;15.57;40.13;99211.28;4417583;32;19994;-52
2021/03/15 05:31:19;;;;;;;;;;;;;;;15.63;39.93;99212.22;4417719;32;19980;-53
2021/03/15 05:33:46;;;;;;;;;;;;;;;15.73;39.72;99206.22;4415597;32;19958;-56
2021/03/15 05:36:12;;;;;;;;;;;;;;;15.72;39.72;99207.94;4413724;32;20320;-55
2021/03/15 05:38:38;;;;;;;;;;;;;;;15.76;39.74;99211.50;4416047;32;19976;-51
2021/03/15 05:41:03;;;;;;;;;;;;;;;15.76;39.64;99201.00;4415627;32;20038;-53
2021/03/15 05:43:29;;;;;;;;;;;;;;;15.76;39.59;99210.66;4416272;32;20010;-52
2021/03/15 05:45:55;;;;;;;;;;;;;;;15.64;39.87;99207.00;4418061;32;19950;-50
2021/03/15 05:48:21;;;;;;;;;;;;;;;15.64;39.98;99206.09;4416862;32;20194;-53
2021/03/15 05:50:47;;;;;;;;;;;;;;;15.60;40.04;99210.41;4417700;32;19996;-51
2021/03/15 05:53:14;;;;;;;;;;;;;;;15.64;39.92;99206.09;4417428;32;19961;-55
2021/03/15 05:55:40;;;;;;;;;;;;;;;15.70;39.69;99201.81;4416433;32;20346;-51
2021/03/15 05:58:07;;;;;;;;;;;;;;;15.68;39.89;99203.53;4408673;32;19963;-53
2021/03/15 06:00:33;;;;;;;;;;;;;;;15.72;39.71;99200.06;4406907;32;21166;-51
2021/03/15 06:02:59;;;;;;;;;;;;;;;15.69;39.89;99200.03;4399002;32;20004;-52
2021/03/15 06:05:26;;;;;;;;;;;;;;;15.69;39.98;99200.03;4400669;32;20345;-49
2021/03/15 06:07:52;;;;;;;;;;;;;;;15.63;40.14;99199.09;4400680;32;20007;-54
2021/03/15 06:10:18;;;;;;;;;;;;;;;15.52;40.35;99191.94;4400787;32;19950;-51
2021/03/15 06:12:44;;;;;;;;;;;;;;;15.62;39.94;99192.97;4402093;32;20009;-50
2021/03/15 06:15:10;;;;;;;;;;;;;;;15.63;40.13;99194.72;4402399;32;19959;-51
2021/03/15 06:17:36;;;;;;;;;;;;;;;15.64;39.93;99193.87;4401009;32;20037;-52
2021/03/15 06:20:02;;;;;;;;;;;;;;;15.59;40.21;99192.91;4401849;32;19958;-52
2021/03/15 06:22:28;;;;;;;;;;;;;;;15.59;40.08;99192.91;4401088;32;20130;-51
2021/03/15 06:24:54;;;;;;;;;;;;;;;15.58;40.06;99191.16;4400135;32;19950;-52
2021/03/15 06:27:19;;;;;;;;;;;;;;;15.61;40.18;99188.56;4400452;32;19958;-53
2021/03/15 06:29:45;;;;;;;;;;;;;;;15.55;40.27;99196.38;4402046;32;19966;-51
2021/03/15 06:32:11;;;;;;;;;;;;;;;15.62;40.10;99182.47;4401777;32;19954;-50
2021/03/15 06:34:37;;;;;;;;;;;;;;;15.64;39.94;99186.00;4401044;32;19939;-50
2021/03/15 06:37:03;;;;;;;;;;;;;;;15.64;40.19;99186.00;4406714;32;19954;-52
2021/03/15 06:39:29;;;;;;;;;;;;;;;15.57;40.16;99189.38;4401569;32;19962;-54
2021/03/15 06:41:55;;;;;;;;;;;;;;;15.62;40.10;99181.56;4401561;32;19997;-51
2021/03/15 06:44:21;;;;;;;;;;;;;;;15.61;40.03;99196.44;4400923;32;20007;-50
2021/03/15 06:46:47;;;;;;;;;;;;;;;15.59;40.10;99196.44;4401638;32;19976;-53
2021/03/15 06:49:13;;;;;;;;;;;;;;;15.55;40.19;99191.97;4406774;32;19946;-52
2021/03/15 06:51:39;;;;;;;;;;;;;;;15.59;40.17;99187.66;4402182;32;19990;-52
2021/03/15 06:54:05;;;;;;;;;;;;;;;15.70;40.03;99191.31;4400109;32;20453;-50
2021/03/15 06:56:31;;;;;;;;;;;;;;;15.65;40.06;99192.09;4410328;32;19961;-48
2021/03/15 06:58:57;;;;;;;;;;;;;;;15.59;40.19;99192.91;4416085;32;19957;-50
2021/03/15 07:01:23;;;;;;;;;;;;;;;15.57;40.25;99199.88;4416215;32;20615;-52
2021/03/15 07:03:49;;;;;;;;;;;;;;;15.60;40.22;99199.91;4415709;32;20006;-54
2021/03/15 07:06:17;;;;;;;;;;;;;;;15.56;40.27;99199.03;4416233;32;20023;-51
2021/03/15 07:08:43;;;;;;;;;;;;;;;15.50;40.37;99203.31;4403849;32;19957;-49
2021/03/15 07:11:09;;;;;;;;;;;;;;;15.52;40.40;99204.19;4400669;32;19989;-54
2021/03/15 07:13:37;;;;;;;;;;;;;;;15.49;40.44;99209.37;4406482;32;20009;-48
2021/03/15 07:16:03;;;;;;;;;;;;;;;15.45;40.51;99208.47;4399689;32;20375;-53
2021/03/15 07:18:29;;;;;;;;;;;;;;;15.54;40.50;99210.34;4398582;32;19984;-50
2021/03/15 07:20:55;;;;;;;;;;;;;;;15.55;40.44;99212.97;4400301;32;19982;-53
2021/03/15 07:23:21;;;;;;;;;;;;;;;15.58;40.36;99222.63;4399884;32;20000;-49
2021/03/15 07:25:46;;;;;;;;;;;;;;;15.55;40.33;99217.34;4400557;32;20426;-53
2021/03/15 07:28:12;;;;;;;;;;;;;;;15.55;40.31;99222.59;4398372;32;19999;-53
2021/03/15 07:30:40;;;;;;;;;;;;;;;15.64;40.15;99233.25;4400304;32;19973;-53
2021/03/15 07:33:06;;;;;;;;;;;;;;;15.68;40.18;99236.75;4396054;32;19992;-53
2021/03/15 07:35:32;;;;;;;;;;;;;;;15.74;40.03;99224.63;4399943;32;19966;-52
2021/03/15 07:37:58;;;;;;;;;;;;;;;15.73;40.02;99233.34;4415194;32;20347;-51
2021/03/15 07:40:24;;;;;;;;;;;;;;;15.82;39.83;99232.59;4415078;32;19995;-54
2021/03/15 07:42:49;;;;;;;;;;;;;;;15.83;39.92;99241.34;4414857;32;19958;-50
2021/03/15 07:45:15;;;;;;;;;;;;;;;15.79;39.88;99242.19;4414311;32;19974;-48
2021/03/15 07:47:41;;;;;;;;;;;;;;;15.79;39.93;99247.41;4414723;32;20031;-52
2021/03/15 07:50:08;;;;;;;;;;;;;;;15.89;39.73;99251.94;4409229;32;20033;-49
2021/03/15 07:52:33;;;;;;;;;;;;;;;15.83;39.91;99259.72;4413573;32;20010;-55
2021/03/15 07:55:00;;;;;;;;;;;;;;;15.86;39.80;99257.13;4414016;32;19954;-51
2021/03/15 07:57:26;;;;;;;;;;;;;;;15.92;39.97;99265.12;4411620;32;19988;-50
2021/03/15 07:59:52;;;;;;;;;;;;;;;15.89;39.97;99259.81;4413757;32;20063;-53
2021/03/15 08:02:18;;;;;;;;;;;;;;;15.93;39.85;99260.78;4411146;32;19946;-50
2021/03/15 08:04:44;;;;;;;;;;;;;;;15.94;39.87;99268.66;4412763;32;19954;-52
2021/03/15 08:07:10;;;;;;;;;;;;;;;15.89;39.98;99272.94;4413004;32;19976;-52
2021/03/15 08:09:36;;;;;;;;;;;;;;;15.90;39.91;99274.75;4414693;32;20001;-53
2021/03/15 08:12:02;;;;;;;;;;;;;;;15.95;39.83;99280.91;4413140;32;19998;-51
2021/03/15 08:14:28;;;;;;;;;;;;;;;15.96;39.83;99285.31;4413304;32;19977;-50
2021/03/15 08:16:53;;;;;;;;;;;;;;;15.96;39.91;99293.19;4411322;32;20373;-53
2021/03/15 08:19:19;;;;;;;;;;;;;;;16.02;39.76;99293.28;4412641;32;20025;-54
2021/03/15 08:21:45;;;;;;;;;;;;;;;16.16;39.39;99295.19;4414481;32;19954;-52
2021/03/15 08:24:12;;;;;;;;;;;;;;;16.12;39.52;99301.28;4413196;32;19991;-53
2021/03/15 08:26:37;;;;;;;;;;;;;;;16.09;39.61;99307.37;4413546;32;20003;-55
2021/03/15 08:29:03;;;;;;;;;;;;;;;15.97;39.83;99309.84;4412532;32;20323;-53
2021/03/15 08:31:29;;;;;;;;;;;;;;;16.00;39.80;99316.00;4414110;32;19982;-52
2021/03/15 08:33:56;;;;;;;;;;;;;;;16.00;39.88;99317.75;4413192;32;19968;-52
2021/03/15 08:36:23;;;;;;;;;;;;;;;16.04;39.84;99326.56;4413244;32;19953;-53
2021/03/15 08:38:49;;;;;;;;;;;;;;;16.06;39.83;99328.34;4411181;32;19962;-52
2021/03/15 08:41:15;;;;;;;;;;;;;;;16.06;39.92;99337.97;4412969;32;20039;-51
2021/03/15 08:43:41;;;;;;;;;;;;;;;16.11;39.88;99341.50;4414036;32;19951;-53
2021/03/15 08:46:07;;;;;;;;;;;;;;;16.09;39.88;99340.63;4413312;32;20312;-53
2021/03/15 08:48:33;;;;;;;;;;;;;;;16.18;39.64;99342.50;4409218;32;19980;-55
2021/03/15 08:50:59;;;;;;;;;;;;;;;16.07;39.84;99353.75;4414109;32;20009;-50
2021/03/15 08:53:25;;;;;;;;;;;;;;;16.00;40.24;99358.03;4409099;32;19954;-48
2021/03/15 08:55:51;;;;;;;;;;;;;;;16.12;39.87;99359.06;4403989;32;19965;-53
2021/03/15 08:58:17;;;;;;;;;;;;;;;16.02;40.27;99360.66;4416599;32;19972;-49
2021/03/15 09:00:43;;;;;;;;;;;;;;;16.15;39.98;99354.72;4416198;32;19999;-48
2021/03/15 09:03:08;;;;;;;;;;;;;;;16.11;40.06;99363.41;4415792;32;20008;-50
2021/03/15 09:05:34;;;;;;;;;;;;;;;16.17;39.94;99362.63;4416326;32;20353;-48
2021/03/15 09:08:01;;;;;;;;;;;;;;;16.26;39.79;99359.22;4415071;32;19969;-49
2021/03/15 09:10:30;;;;;;;;;;;;;;;16.24;39.81;99364.50;4415882;32;19957;-50
2021/03/15 09:12:56;;;;;;;;;;;;;;;16.28;39.83;99379.41;4415479;32;20035;-51
2021/03/15 09:15:22;;;;;;;;;;;;;;;16.40;39.61;99372.56;4416253;32;19973;-46
2021/03/15 09:17:48;;;;;;;;;;;;;;;16.44;39.56;99379.59;4414152;32;19958;-49
2021/03/15 09:20:13;;;;;;;;;;;;;;;16.27;39.93;99385.53;4416014;32;19988;-49
2021/03/15 09:22:39;;;;;;;;;;;;;;;16.36;39.79;99378.63;4417445;32;19953;-48
2021/03/15 09:25:05;;;;;;;;;;;;;;;16.32;39.88;99392.59;4411985;32;19958;-51
2021/03/15 09:27:32;;;;;;;;;;;;;;;16.34;39.87;99382.97;4416497;32;19954;-50
2021/03/15 09:29:58;;;;;;;;;;;;;;;16.40;39.73;99388.31;4416233;32;20343;-48
2021/03/15 09:32:24;;;;;;;;;;;;;;;16.40;39.71;99390.97;4415346;32;19976;-52
2021/03/15 09:34:50;;;;;;;;;;;;;;;16.38;39.72;99400.56;4415255;32;20001;-49
2021/03/15 09:37:16;;;;;;;;;;;;;;;16.43;39.67;99399.78;4413301;32;19991;-48
2021/03/15 09:39:42;;;;;;;;;;;;;;;16.46;39.60;99401.53;4411593;32;19970;-51
2021/03/15 09:42:09;;;;;;;;;;;;;;;16.44;39.63;99398.91;4415193;32;19958;-51
2021/03/15 09:44:34;;;;;;;;;;;;;;;16.45;39.61;99402.41;4415046;32;19994;-50
2021/03/15 09:47:00;;;;;;;;;;;;;;;15.98;40.24;99409.62;4413872;32;20331;-50
2021/03/15 09:49:26;;;;;;;;;;;;;;;16.11;40.14;99409.81;4415570;32;20006;-50
2021/03/15 09:51:52;;;;;;;;;;;;;;;16.29;39.73;99410.09;4407542;32;20315;-49
2021/03/15 09:54:18;;;;;;;;;;;;;;;16.41;39.67;99422.50;4405584;32;19984;-52
2021/03/15 09:56:44;;;;;;;;;;;;;;;16.49;39.49;99414.75;4416041;32;20373;-49
2021/03/15 09:59:10;;;;;;;;;;;;;;;16.51;39.48;99428.78;4412445;32;19965;-51
2021/03/15 10:01:36;;;;;;;;;;;;;;;16.57;39.54;99427.97;4415337;32;19962;-47
2021/03/15 10:04:01;;;;;;;;;;;;;;;16.49;39.43;99430.50;4412454;32;19954;-49
2021/03/15 10:06:27;;;;;;;;;;;;;;;16.48;39.69;99439.22;4399377;32;20987;-50
2021/03/15 10:08:53;;;;;;;;;;;;;;;16.54;39.59;99441.94;4398373;32;19972;-53
2021/03/15 10:11:19;;;;;;;;;;;;;;;16.55;39.56;99446.34;4401143;32;19962;-49
2021/03/15 10:13:45;;;;;;;;;;;;;;;16.61;39.57;99453.44;4414787;32;19962;-53
2021/03/15 10:16:11;;;;;;;;;;;;;;;16.55;39.84;99451.59;4416290;32;19950;-51
2021/03/15 10:18:37;;;;;;;;;;;;;;;16.64;39.51;99457.84;4415647;32;19962;-48
2021/03/15 10:21:03;;;;;;;;;;;;;;;16.63;39.63;99456.09;4415557;32;19958;-51
2021/03/15 10:23:32;;;;;;;;;;;;;;;16.63;39.59;99454.31;4416533;32;20428;-48
2021/03/15 10:25:58;;;;;;;;;;;;;;;16.55;39.57;99450.72;4416672;32;19981;-48
2021/03/15 10:28:24;;;;;;;;;;;;;;;16.46;39.69;99446.22;4415808;32;19995;-47
2021/03/15 10:30:49;;;;;;;;;;;;;;;16.52;39.51;99448.03;4416619;32;19958;-51
2021/03/15 10:33:15;;;;;;;;;;;;;;;16.52;39.50;99464.69;4415827;32;19992;-49
2021/03/15 10:35:41;;;;;;;;;;;;;;;16.52;39.53;99469.97;4415588;32;19988;-50
2021/03/15 10:38:07;;;;;;;;;;;;;;;16.55;39.49;99477.88;4410450;32;20005;-48
2021/03/15 10:40:33;;;;;;;;;;;;;;;16.46;39.61;99467.22;4415219;32;19958;-48
2021/03/15 10:42:59;;;;;;;;;;;;;;;16.52;39.54;99474.31;4415335;32;19958;-47
2021/03/15 10:45:25;;;;;;;;;;;;;;;16.67;39.28;99471.94;4413552;32;19973;-48
2021/03/15 10:47:50;;;;;;;;;;;;;;;16.72;39.15;99471.94;4414570;32;20394;-48
2021/03/15 10:50:16;;;;;;;;;;;;;;;16.68;39.23;99472.78;4413316;32;19980;-44
2021/03/15 10:52:43;;;;;;;;;;;;;;;16.60;39.29;99477.06;4414621;32;20007;-48
2021/03/15 10:55:09;;;;;;;;;;;;;;;16.62;39.24;99468.34;4414873;32;19950;-49
2021/03/15 10:57:34;;;;;;;;;;;;;;;16.60;39.34;99467.44;4414144;32;20343;-49
2021/03/15 11:00:00;;;;;;;;;;;;;;;16.57;39.32;99467.41;4414767;32;19974;-51
2021/03/15 11:02:26;;;;;;;;;;;;;;;16.52;39.39;99469.97;4414586;32;19995;-48
2021/03/15 11:04:52;;;;;;;;;;;;;;;16.48;39.43;99465.50;4413394;32;20093;-50
2021/03/15 11:07:18;;;;;;;;;;;;;;;16.52;39.40;99467.34;4409902;32;20599;-50
2021/03/15 11:09:44;;;;;;;;;;;;;;;16.55;39.31;99470.00;4414628;32;19994;-50
2021/03/15 11:12:10;;;;;;;;;;;;;;;16.63;39.20;99469.22;4414543;32;19988;-49
2021/03/15 11:14:36;;;;;;;;;;;;;;;16.52;39.66;99472.59;4414439;32;20006;-51
2021/03/15 11:17:02;;;;;;;;;;;;;;;16.67;39.42;99471.03;4415214;32;19984;-45
2021/03/15 11:19:28;;;;;;;;;;;;;;;16.68;39.51;99470.16;4413952;32;19985;-51
2021/03/15 11:21:54;;;;;;;;;;;;;;;16.77;39.36;99462.41;4414776;32;20008;-50
2021/03/15 11:24:20;;;;;;;;;;;;;;;16.81;39.24;99468.59;4413355;32;20564;-52
2021/03/15 11:26:46;;;;;;;;;;;;;;;16.82;39.26;99475.59;4413954;32;19968;-51
2021/03/15 11:29:12;;;;;;;;;;;;;;;16.75;39.11;99474.66;4413369;32;19954;-49
2021/03/15 11:31:38;;;;;;;;;;;;;;;16.64;38.84;99471.00;4415593;32;20016;-47
2021/03/15 11:34:04;;;;;;;;;;;;;;;16.58;39.16;99467.41;4413178;32;19946;-50
2021/03/15 11:36:33;;;;;;;;;;;;;;;16.62;39.24;99480.59;4412818;32;20335;-46
2021/03/15 11:38:59;;;;;;;;;;;;;;;16.59;39.26;99481.44;4413788;32;20573;-50
2021/03/15 11:41:25;;;;;;;;;;;;;;;16.72;39.11;99485.09;4414825;32;20014;-48
2021/03/15 11:43:51;;;;;;;;;;;;;;;16.63;39.26;99490.25;4414438;32;20384;-51
2021/03/15 11:46:17;;;;;;;;;;;;;;;16.68;39.18;99493.81;4413618;32;19996;-49
2021/03/15 11:48:43;;;;;;;;;;;;;;;16.69;39.12;99490.31;4413773;32;20292;-51
2021/03/15 11:51:09;;;;;;;;;;;;;;;16.74;39.08;99498.28;4415227;32;19954;-53
2021/03/15 11:53:35;;;;;;;;;;;;;;;16.72;39.09;99503.50;4414960;32;20051;-52
2021/03/15 11:56:00;;;;;;;;;;;;;;;16.73;39.03;99502.69;4414849;32;19973;-52
2021/03/15 11:58:26;;;;;;;;;;;;;;;16.76;39.03;99497.44;4413157;32;19942;-51
2021/03/15 12:00:52;;;;;;;;;;;;;;;16.80;39.12;99499.25;4413965;32;20002;-52
2021/03/15 12:03:18;;;;;;;;;;;;;;;16.84;39.01;99516.81;4412745;32;19954;-48
2021/03/15 12:05:44;;;;;;;;;;;;;;;16.82;39.08;99515.91;4414921;32;19962;-51
2021/03/15 12:08:10;;;;;;;;;;;;;;;16.76;39.29;99518.47;4412675;32;19999;-51
2021/03/15 12:10:36;;;;;;;;;;;;;;;16.77;39.18;99514.09;4414950;32;19962;-50
2021/03/15 12:13:02;;;;;;;;;;;;;;;16.77;39.26;99520.25;4413686;32;19958;-50
2021/03/15 12:15:28;;;;;;;;;;;;;;;16.78;39.18;99507.97;4413264;32;20035;-52
2021/03/15 12:17:54;;;;;;;;;;;;;;;16.81;39.49;99516.78;4413191;32;19954;-48
2021/03/15 12:20:20;;;;;;;;;;;;;;;16.82;39.45;99512.41;4414412;32;20365;-52
2021/03/15 12:22:49;;;;;;;;;;;;;;;16.84;39.39;99516.81;4414501;32;19968;-52
2021/03/15 12:25:15;;;;;;;;;;;;;;;16.86;39.46;99514.22;4410717;32;20044;-48
2021/03/15 12:27:40;;;;;;;;;;;;;;;16.90;39.17;99507.25;4414210;32;20002;-49
2021/03/15 12:30:06;;;;;;;;;;;;;;;16.89;39.17;99509.00;4413727;32;19959;-50
2021/03/15 12:32:32;;;;;;;;;;;;;;;16.99;39.13;99515.28;4414231;32;19972;-46
2021/03/15 12:34:58;;;;;;;;;;;;;;;16.96;39.28;99509.94;4412909;32;20633;-51
2021/03/15 12:37:24;;;;;;;;;;;;;;;16.92;39.41;99519.56;4410904;32;20078;-50
2021/03/15 12:39:50;;;;;;;;;;;;;;;16.94;39.37;99516.94;4414014;32;19957;-52